sensor_id;sensor_type;location;lat;lon;timestamp;P1;durP1;ratioP1;P2;durP2;ratioP2
7881;SDS011;3986;41.884;23.466;2022-07-29T00:00:10;16.58;;;13.88;;
7881;SDS011;3986;41.884;23.466;2022-07-29T00:02:38;21.48;;;13.80;;
7881;SDS011;3986;41.884;23.466;2022-07-29T00:05:05;18.85;;;16.45;;
7881;SDS011;3986;41.884;23.466;2022-07-29T00:07:32;22.02;;;16.95;;
7881;SDS011;3986;41.884;23.466;2022-07-29T00:10:00;16.67;;;15.25;;
7881;SDS011;3986;41.884;23.466;2022-07-29T00:12:27;16.38;;;14.93;;
7881;SDS011;3986;41.884;23.466;2022-07-29T00:14:54;21.27;;;13.38;;
7881;SDS011;3986;41.884;23.466;2022-07-29T00:17:22;32.75;;;15.68;;
7881;SDS011;3986;41.884;23.466;2022-07-29T00:19:49;25.95;;;15.15;;
7881;SDS011;3986;41.884;23.466;2022-07-29T00:22:16;24.88;;;15.15;;
7881;SDS011;3986;41.884;23.466;2022-07-29T00:24:43;20.17;;;14.77;;
7881;SDS011;3986;41.884;23.466;2022-07-29T00:27:11;20.63;;;15.45;;
7881;SDS011;3986;41.884;23.466;2022-07-29T00:29:38;16.75;;;15.23;;
7881;SDS011;3986;41.884;23.466;2022-07-29T00:32:05;20.90;;;15.68;;
7881;SDS011;3986;41.884;23.466;2022-07-29T00:34:32;19.80;;;14.98;;
7881;SDS011;3986;41.884;23.466;2022-07-29T00:37:17;28.30;;;14.68;;
7881;SDS011;3986;41.884;23.466;2022-07-29T00:39:44;24.73;;;13.57;;
7881;SDS011;3986;41.884;23.466;2022-07-29T00:42:12;19.65;;;13.82;;
7881;SDS011;3986;41.884;23.466;2022-07-29T00:44:39;15.05;;;13.85;;
7881;SDS011;3986;41.884;23.466;2022-07-29T00:47:07;16.20;;;13.95;;
7881;SDS011;3986;41.884;23.466;2022-07-29T00:49:34;20.75;;;14.85;;
7881;SDS011;3986;41.884;23.466;2022-07-29T00:52:01;25.60;;;14.73;;
7881;SDS011;3986;41.884;23.466;2022-07-29T00:54:29;16.70;;;15.00;;
7881;SDS011;3986;41.884;23.466;2022-07-29T00:56:56;20.38;;;14.48;;
7881;SDS011;3986;41.884;23.466;2022-07-29T00:59:25;24.00;;;14.80;;
7881;SDS011;3986;41.884;23.466;2022-07-29T01:01:53;29.42;;;15.32;;
7881;SDS011;3986;41.884;23.466;2022-07-29T01:04:20;22.80;;;15.00;;
7881;SDS011;3986;41.884;23.466;2022-07-29T01:06:47;15.77;;;14.15;;
7881;SDS011;3986;41.884;23.466;2022-07-29T01:09:14;22.33;;;15.23;;
7881;SDS011;3986;41.884;23.466;2022-07-29T01:11:44;24.33;;;14.65;;
7881;SDS011;3986;41.884;23.466;2022-07-29T01:14:13;26.60;;;13.73;;
7881;SDS011;3986;41.884;23.466;2022-07-29T01:16:44;24.52;;;15.20;;
7881;SDS011;3986;41.884;23.466;2022-07-29T01:19:18;26.08;;;14.52;;
7881;SDS011;3986;41.884;23.466;2022-07-29T01:21:59;17.75;;;14.05;;
7881;SDS011;3986;41.884;23.466;2022-07-29T01:24:48;20.58;;;14.15;;
7881;SDS011;3986;41.884;23.466;2022-07-29T01:27:32;16.35;;;13.90;;
7881;SDS011;3986;41.884;23.466;2022-07-29T01:30:08;17.33;;;14.20;;
7881;SDS011;3986;41.884;23.466;2022-07-29T01:32:37;18.63;;;12.85;;
7881;SDS011;3986;41.884;23.466;2022-07-29T01:35:06;17.60;;;13.70;;
7881;SDS011;3986;41.884;23.466;2022-07-29T01:37:39;18.73;;;13.80;;
7881;SDS011;3986;41.884;23.466;2022-07-29T01:40:11;18.70;;;13.10;;
7881;SDS011;3986;41.884;23.466;2022-07-29T01:42:54;25.08;;;13.77;;
7881;SDS011;3986;41.884;23.466;2022-07-29T01:45:24;24.67;;;14.77;;
7881;SDS011;3986;41.884;23.466;2022-07-29T01:47:56;22.50;;;14.32;;
7881;SDS011;3986;41.884;23.466;2022-07-29T01:50:29;20.83;;;13.90;;
7881;SDS011;3986;41.884;23.466;2022-07-29T01:53:01;15.10;;;13.82;;
7881;SDS011;3986;41.884;23.466;2022-07-29T01:55:32;14.38;;;12.88;;
7881;SDS011;3986;41.884;23.466;2022-07-29T01:58:02;15.65;;;13.93;;
7881;SDS011;3986;41.884;23.466;2022-07-29T02:00:32;18.23;;;14.80;;
7881;SDS011;3986;41.884;23.466;2022-07-29T02:03:00;18.52;;;16.63;;
7881;SDS011;3986;41.884;23.466;2022-07-29T02:05:30;16.92;;;15.15;;
7881;SDS011;3986;41.884;23.466;2022-07-29T02:07:59;19.15;;;14.57;;
7881;SDS011;3986;41.884;23.466;2022-07-29T02:10:29;16.52;;;14.73;;
7881;SDS011;3986;41.884;23.466;2022-07-29T02:12:58;21.70;;;15.52;;
7881;SDS011;3986;41.884;23.466;2022-07-29T02:15:27;22.70;;;14.48;;
7881;SDS011;3986;41.884;23.466;2022-07-29T02:18:00;16.45;;;14.80;;
7881;SDS011;3986;41.884;23.466;2022-07-29T02:20:28;16.67;;;15.20;;
7881;SDS011;3986;41.884;23.466;2022-07-29T02:22:56;25.67;;;15.07;;
7881;SDS011;3986;41.884;23.466;2022-07-29T02:25:25;32.55;;;18.05;;
7881;SDS011;3986;41.884;23.466;2022-07-29T02:27:53;36.75;;;17.52;;
7881;SDS011;3986;41.884;23.466;2022-07-29T02:30:21;28.38;;;16.90;;
7881;SDS011;3986;41.884;23.466;2022-07-29T02:32:50;28.13;;;16.88;;
7881;SDS011;3986;41.884;23.466;2022-07-29T02:35:19;26.88;;;17.33;;
7881;SDS011;3986;41.884;23.466;2022-07-29T02:37:47;33.05;;;17.58;;
7881;SDS011;3986;41.884;23.466;2022-07-29T02:40:35;20.20;;;17.73;;
7881;SDS011;3986;41.884;23.466;2022-07-29T02:43:05;20.70;;;18.48;;
7881;SDS011;3986;41.884;23.466;2022-07-29T02:45:33;19.83;;;18.00;;
7881;SDS011;3986;41.884;23.466;2022-07-29T02:48:00;21.60;;;19.27;;
7881;SDS011;3986;41.884;23.466;2022-07-29T02:50:33;27.00;;;20.75;;
7881;SDS011;3986;41.884;23.466;2022-07-29T02:53:05;22.37;;;20.23;;
7881;SDS011;3986;41.884;23.466;2022-07-29T02:55:37;27.92;;;24.67;;
7881;SDS011;3986;41.884;23.466;2022-07-29T02:58:07;25.65;;;22.98;;
7881;SDS011;3986;41.884;23.466;2022-07-29T03:00:39;25.83;;;21.13;;
7881;SDS011;3986;41.884;23.466;2022-07-29T03:03:08;21.45;;;19.27;;
7881;SDS011;3986;41.884;23.466;2022-07-29T03:05:39;19.83;;;18.23;;
7881;SDS011;3986;41.884;23.466;2022-07-29T03:08:06;19.55;;;17.63;;
7881;SDS011;3986;41.884;23.466;2022-07-29T03:10:36;20.10;;;18.13;;
7881;SDS011;3986;41.884;23.466;2022-07-29T03:13:04;22.88;;;19.17;;
7881;SDS011;3986;41.884;23.466;2022-07-29T03:15:32;20.38;;;18.73;;
7881;SDS011;3986;41.884;23.466;2022-07-29T03:17:59;20.50;;;18.60;;
7881;SDS011;3986;41.884;23.466;2022-07-29T03:20:26;29.38;;;18.83;;
7881;SDS011;3986;41.884;23.466;2022-07-29T03:22:54;28.75;;;19.58;;
7881;SDS011;3986;41.884;23.466;2022-07-29T03:25:21;27.92;;;18.90;;
7881;SDS011;3986;41.884;23.466;2022-07-29T03:27:49;26.75;;;18.83;;
7881;SDS011;3986;41.884;23.466;2022-07-29T03:30:16;31.13;;;20.90;;
7881;SDS011;3986;41.884;23.466;2022-07-29T03:32:43;26.70;;;18.85;;
7881;SDS011;3986;41.884;23.466;2022-07-29T03:35:10;22.08;;;19.85;;
7881;SDS011;3986;41.884;23.466;2022-07-29T03:37:37;23.50;;;21.20;;
7881;SDS011;3986;41.884;23.466;2022-07-29T03:40:06;22.98;;;20.23;;
7881;SDS011;3986;41.884;23.466;2022-07-29T03:42:36;30.20;;;27.27;;
7881;SDS011;3986;41.884;23.466;2022-07-29T03:45:06;30.58;;;27.77;;
7881;SDS011;3986;41.884;23.466;2022-07-29T03:47:37;21.48;;;19.60;;
7881;SDS011;3986;41.884;23.466;2022-07-29T03:50:07;20.38;;;18.48;;
7881;SDS011;3986;41.884;23.466;2022-07-29T03:52:36;22.05;;;19.75;;
7881;SDS011;3986;41.884;23.466;2022-07-29T03:55:06;20.80;;;18.77;;
7881;SDS011;3986;41.884;23.466;2022-07-29T03:57:34;24.13;;;16.98;;
7881;SDS011;3986;41.884;23.466;2022-07-29T04:00:03;18.98;;;17.27;;
7881;SDS011;3986;41.884;23.466;2022-07-29T04:02:31;18.63;;;16.70;;
7881;SDS011;3986;41.884;23.466;2022-07-29T04:04:59;18.63;;;16.73;;
7881;SDS011;3986;41.884;23.466;2022-07-29T04:07:26;54.17;;;23.45;;
7881;SDS011;3986;41.884;23.466;2022-07-29T04:09:52;26.85;;;18.92;;
7881;SDS011;3986;41.884;23.466;2022-07-29T04:12:21;22.90;;;16.05;;
7881;SDS011;3986;41.884;23.466;2022-07-29T04:14:47;17.70;;;16.30;;
7881;SDS011;3986;41.884;23.466;2022-07-29T04:17:15;32.15;;;21.25;;
7881;SDS011;3986;41.884;23.466;2022-07-29T04:19:42;19.80;;;18.00;;
7881;SDS011;3986;41.884;23.466;2022-07-29T04:22:08;20.10;;;18.10;;
7881;SDS011;3986;41.884;23.466;2022-07-29T04:24:35;18.95;;;16.83;;
7881;SDS011;3986;41.884;23.466;2022-07-29T04:27:02;23.45;;;21.38;;
7881;SDS011;3986;41.884;23.466;2022-07-29T04:29:30;30.85;;;21.25;;
7881;SDS011;3986;41.884;23.466;2022-07-29T04:31:57;126.63;;;25.13;;
7881;SDS011;3986;41.884;23.466;2022-07-29T04:34:24;47.47;;;41.85;;
7881;SDS011;3986;41.884;23.466;2022-07-29T04:36:51;62.28;;;54.65;;
7881;SDS011;3986;41.884;23.466;2022-07-29T04:39:17;54.10;;;48.45;;
7881;SDS011;3986;41.884;23.466;2022-07-29T04:41:44;55.42;;;50.05;;
7881;SDS011;3986;41.884;23.466;2022-07-29T04:44:12;51.08;;;45.67;;
7881;SDS011;3986;41.884;23.466;2022-07-29T04:46:40;34.15;;;31.05;;
7881;SDS011;3986;41.884;23.466;2022-07-29T04:49:07;30.05;;;24.95;;
7881;SDS011;3986;41.884;23.466;2022-07-29T04:51:34;26.88;;;24.05;;
7881;SDS011;3986;41.884;23.466;2022-07-29T04:54:01;40.17;;;24.88;;
7881;SDS011;3986;41.884;23.466;2022-07-29T04:56:28;38.03;;;27.23;;
7881;SDS011;3986;41.884;23.466;2022-07-29T04:58:55;32.85;;;27.50;;
7881;SDS011;3986;41.884;23.466;2022-07-29T05:01:22;39.95;;;31.27;;
7881;SDS011;3986;41.884;23.466;2022-07-29T05:03:53;32.65;;;29.30;;
7881;SDS011;3986;41.884;23.466;2022-07-29T05:06:19;41.10;;;31.05;;
7881;SDS011;3986;41.884;23.466;2022-07-29T05:08:46;45.05;;;31.83;;
7881;SDS011;3986;41.884;23.466;2022-07-29T05:11:13;37.78;;;30.45;;
7881;SDS011;3986;41.884;23.466;2022-07-29T05:13:40;49.70;;;43.42;;
7881;SDS011;3986;41.884;23.466;2022-07-29T05:16:07;35.08;;;31.40;;
7881;SDS011;3986;41.884;23.466;2022-07-29T05:18:34;40.33;;;36.08;;
7881;SDS011;3986;41.884;23.466;2022-07-29T05:21:02;44.65;;;29.63;;
7881;SDS011;3986;41.884;23.466;2022-07-29T05:23:29;32.97;;;26.52;;
7881;SDS011;3986;41.884;23.466;2022-07-29T05:25:56;34.30;;;26.08;;
7881;SDS011;3986;41.884;23.466;2022-07-29T05:28:23;48.00;;;28.25;;
7881;SDS011;3986;41.884;23.466;2022-07-29T05:30:49;53.17;;;29.65;;
7881;SDS011;3986;41.884;23.466;2022-07-29T05:33:16;54.78;;;30.80;;
7881;SDS011;3986;41.884;23.466;2022-07-29T05:35:43;41.13;;;28.63;;
7881;SDS011;3986;41.884;23.466;2022-07-29T05:38:11;38.58;;;27.98;;
7881;SDS011;3986;41.884;23.466;2022-07-29T05:40:38;42.97;;;27.40;;
7881;SDS011;3986;41.884;23.466;2022-07-29T05:43:05;46.10;;;30.00;;
7881;SDS011;3986;41.884;23.466;2022-07-29T05:45:32;61.00;;;29.88;;
7881;SDS011;3986;41.884;23.466;2022-07-29T05:47:59;50.30;;;29.63;;
7881;SDS011;3986;41.884;23.466;2022-07-29T05:50:25;48.33;;;28.90;;
7881;SDS011;3986;41.884;23.466;2022-07-29T05:52:52;63.55;;;33.33;;
7881;SDS011;3986;41.884;23.466;2022-07-29T05:55:20;40.22;;;29.55;;
7881;SDS011;3986;41.884;23.466;2022-07-29T05:57:47;33.47;;;26.92;;
7881;SDS011;3986;41.884;23.466;2022-07-29T06:00:14;42.78;;;24.85;;
7881;SDS011;3986;41.884;23.466;2022-07-29T06:02:42;39.15;;;25.95;;
7881;SDS011;3986;41.884;23.466;2022-07-29T06:05:08;29.95;;;26.15;;
7881;SDS011;3986;41.884;23.466;2022-07-29T06:07:35;29.60;;;26.42;;
7881;SDS011;3986;41.884;23.466;2022-07-29T06:10:03;40.45;;;25.83;;
7881;SDS011;3986;41.884;23.466;2022-07-29T06:12:32;43.42;;;25.10;;
7881;SDS011;3986;41.884;23.466;2022-07-29T06:14:58;28.02;;;23.65;;
7881;SDS011;3986;41.884;23.466;2022-07-29T06:17:25;34.05;;;24.55;;
7881;SDS011;3986;41.884;23.466;2022-07-29T06:19:52;39.90;;;24.17;;
7881;SDS011;3986;41.884;23.466;2022-07-29T06:22:19;31.00;;;24.70;;
7881;SDS011;3986;41.884;23.466;2022-07-29T06:24:46;53.58;;;27.77;;
7881;SDS011;3986;41.884;23.466;2022-07-29T06:27:13;36.85;;;23.45;;
7881;SDS011;3986;41.884;23.466;2022-07-29T06:29:41;27.73;;;23.42;;
7881;SDS011;3986;41.884;23.466;2022-07-29T06:32:08;44.35;;;25.33;;
7881;SDS011;3986;41.884;23.466;2022-07-29T06:34:35;59.10;;;26.90;;
7881;SDS011;3986;41.884;23.466;2022-07-29T06:37:05;42.85;;;26.50;;
7881;SDS011;3986;41.884;23.466;2022-07-29T06:39:33;44.97;;;25.35;;
7881;SDS011;3986;41.884;23.466;2022-07-29T06:42:00;41.67;;;25.65;;
7881;SDS011;3986;41.884;23.466;2022-07-29T06:44:27;64.53;;;25.58;;
7881;SDS011;3986;41.884;23.466;2022-07-29T06:46:56;60.60;;;24.55;;
7881;SDS011;3986;41.884;23.466;2022-07-29T06:49:23;55.92;;;24.90;;
7881;SDS011;3986;41.884;23.466;2022-07-29T06:51:51;28.55;;;22.65;;
7881;SDS011;3986;41.884;23.466;2022-07-29T06:54:18;44.78;;;23.50;;
7881;SDS011;3986;41.884;23.466;2022-07-29T06:56:45;44.67;;;24.00;;
7881;SDS011;3986;41.884;23.466;2022-07-29T06:59:12;54.25;;;24.60;;
7881;SDS011;3986;41.884;23.466;2022-07-29T07:01:40;27.45;;;20.63;;
7881;SDS011;3986;41.884;23.466;2022-07-29T07:04:10;49.15;;;23.67;;
7881;SDS011;3986;41.884;23.466;2022-07-29T07:06:37;38.85;;;22.52;;
7881;SDS011;3986;41.884;23.466;2022-07-29T07:09:04;29.80;;;23.50;;
7881;SDS011;3986;41.884;23.466;2022-07-29T07:11:31;54.33;;;24.48;;
7881;SDS011;3986;41.884;23.466;2022-07-29T07:13:58;47.78;;;21.63;;
7881;SDS011;3986;41.884;23.466;2022-07-29T07:16:25;40.38;;;20.67;;
7881;SDS011;3986;41.884;23.466;2022-07-29T07:18:52;38.50;;;20.83;;
7881;SDS011;3986;41.884;23.466;2022-07-29T07:21:20;55.33;;;20.10;;
7881;SDS011;3986;41.884;23.466;2022-07-29T07:23:47;35.13;;;19.98;;
7881;SDS011;3986;41.884;23.466;2022-07-29T07:26:14;38.28;;;19.33;;
7881;SDS011;3986;41.884;23.466;2022-07-29T07:28:41;70.07;;;25.88;;
7881;SDS011;3986;41.884;23.466;2022-07-29T07:31:08;35.13;;;20.42;;
7881;SDS011;3986;41.884;23.466;2022-07-29T07:33:35;53.20;;;20.63;;
7881;SDS011;3986;41.884;23.466;2022-07-29T07:36:02;48.15;;;21.52;;
7881;SDS011;3986;41.884;23.466;2022-07-29T07:38:31;40.50;;;23.73;;
7881;SDS011;3986;41.884;23.466;2022-07-29T07:40:57;30.33;;;18.05;;
7881;SDS011;3986;41.884;23.466;2022-07-29T07:43:24;31.95;;;17.45;;
7881;SDS011;3986;41.884;23.466;2022-07-29T07:45:51;33.45;;;17.67;;
7881;SDS011;3986;41.884;23.466;2022-07-29T07:48:18;33.22;;;18.02;;
7881;SDS011;3986;41.884;23.466;2022-07-29T07:50:45;43.10;;;16.88;;
7881;SDS011;3986;41.884;23.466;2022-07-29T07:53:15;27.80;;;16.52;;
7881;SDS011;3986;41.884;23.466;2022-07-29T07:55:43;39.67;;;17.27;;
7881;SDS011;3986;41.884;23.466;2022-07-29T07:58:10;73.63;;;19.17;;
7881;SDS011;3986;41.884;23.466;2022-07-29T08:00:37;22.88;;;15.77;;
7881;SDS011;3986;41.884;23.466;2022-07-29T08:03:04;45.13;;;16.08;;
7881;SDS011;3986;41.884;23.466;2022-07-29T08:05:31;30.73;;;15.63;;
7881;SDS011;3986;41.884;23.466;2022-07-29T08:07:58;38.75;;;17.85;;
7881;SDS011;3986;41.884;23.466;2022-07-29T08:10:25;22.65;;;14.07;;
7881;SDS011;3986;41.884;23.466;2022-07-29T08:13:10;34.03;;;15.13;;
7881;SDS011;3986;41.884;23.466;2022-07-29T08:15:38;63.35;;;16.60;;
7881;SDS011;3986;41.884;23.466;2022-07-29T08:18:05;47.05;;;15.30;;
7881;SDS011;3986;41.884;23.466;2022-07-29T08:20:32;49.20;;;16.05;;
7881;SDS011;3986;41.884;23.466;2022-07-29T08:23:00;51.15;;;17.33;;
7881;SDS011;3986;41.884;23.466;2022-07-29T08:25:27;20.58;;;13.30;;
7881;SDS011;3986;41.884;23.466;2022-07-29T08:27:55;59.35;;;16.80;;
7881;SDS011;3986;41.884;23.466;2022-07-29T08:30:23;71.15;;;20.40;;
7881;SDS011;3986;41.884;23.466;2022-07-29T08:32:50;56.85;;;17.55;;
7881;SDS011;3986;41.884;23.466;2022-07-29T08:35:18;48.65;;;17.67;;
7881;SDS011;3986;41.884;23.466;2022-07-29T08:37:45;59.50;;;17.60;;
7881;SDS011;3986;41.884;23.466;2022-07-29T08:40:12;64.47;;;17.85;;
7881;SDS011;3986;41.884;23.466;2022-07-29T08:42:39;40.85;;;18.42;;
7881;SDS011;3986;41.884;23.466;2022-07-29T08:45:07;49.53;;;17.63;;
7881;SDS011;3986;41.884;23.466;2022-07-29T08:47:37;72.13;;;18.17;;
7881;SDS011;3986;41.884;23.466;2022-07-29T08:50:06;58.28;;;19.05;;
7881;SDS011;3986;41.884;23.466;2022-07-29T08:52:35;43.25;;;20.92;;
7881;SDS011;3986;41.884;23.466;2022-07-29T08:55:03;56.75;;;19.67;;
7881;SDS011;3986;41.884;23.466;2022-07-29T08:57:31;72.25;;;19.27;;
7881;SDS011;3986;41.884;23.466;2022-07-29T09:00:00;40.22;;;17.05;;
7881;SDS011;3986;41.884;23.466;2022-07-29T09:02:28;44.85;;;19.55;;
7881;SDS011;3986;41.884;23.466;2022-07-29T09:04:58;44.00;;;19.20;;
7881;SDS011;3986;41.884;23.466;2022-07-29T09:07:27;67.28;;;21.85;;
7881;SDS011;3986;41.884;23.466;2022-07-29T09:09:54;42.03;;;16.75;;
7881;SDS011;3986;41.884;23.466;2022-07-29T09:12:22;40.45;;;16.77;;
7881;SDS011;3986;41.884;23.466;2022-07-29T09:14:50;43.30;;;17.05;;
7881;SDS011;3986;41.884;23.466;2022-07-29T09:17:17;49.75;;;17.83;;
7881;SDS011;3986;41.884;23.466;2022-07-29T09:19:45;53.67;;;17.77;;
7881;SDS011;3986;41.884;23.466;2022-07-29T09:22:13;32.42;;;14.48;;
7881;SDS011;3986;41.884;23.466;2022-07-29T09:24:58;39.08;;;16.02;;
7881;SDS011;3986;41.884;23.466;2022-07-29T09:27:25;35.10;;;14.05;;
7881;SDS011;3986;41.884;23.466;2022-07-29T09:29:57;34.80;;;13.60;;
7881;SDS011;3986;41.884;23.466;2022-07-29T09:32:25;27.95;;;12.68;;
7881;SDS011;3986;41.884;23.466;2022-07-29T09:37:43;54.85;;;14.38;;
7881;SDS011;3986;41.884;23.466;2022-07-29T09:40:11;35.30;;;12.73;;
7881;SDS011;3986;41.884;23.466;2022-07-29T09:42:40;59.80;;;15.63;;
7881;SDS011;3986;41.884;23.466;2022-07-29T09:45:08;47.90;;;13.00;;
7881;SDS011;3986;41.884;23.466;2022-07-29T09:47:43;41.40;;;12.55;;
7881;SDS011;3986;41.884;23.466;2022-07-29T09:50:12;36.47;;;12.40;;
7881;SDS011;3986;41.884;23.466;2022-07-29T09:52:47;41.13;;;13.80;;
7881;SDS011;3986;41.884;23.466;2022-07-29T09:55:15;35.95;;;12.70;;
7881;SDS011;3986;41.884;23.466;2022-07-29T09:57:43;34.95;;;12.20;;
7881;SDS011;3986;41.884;23.466;2022-07-29T10:00:11;48.97;;;12.48;;
7881;SDS011;3986;41.884;23.466;2022-07-29T10:02:40;39.25;;;12.65;;
7881;SDS011;3986;41.884;23.466;2022-07-29T10:05:19;37.03;;;12.95;;
7881;SDS011;3986;41.884;23.466;2022-07-29T10:07:51;37.28;;;14.05;;
7881;SDS011;3986;41.884;23.466;2022-07-29T10:10:20;31.15;;;13.68;;
7881;SDS011;3986;41.884;23.466;2022-07-29T10:12:50;35.88;;;11.82;;
7881;SDS011;3986;41.884;23.466;2022-07-29T10:15:18;59.17;;;13.15;;
7881;SDS011;3986;41.884;23.466;2022-07-29T10:17:47;31.42;;;9.95;;
7881;SDS011;3986;41.884;23.466;2022-07-29T10:20:14;33.70;;;10.05;;
7881;SDS011;3986;41.884;23.466;2022-07-29T10:22:42;38.63;;;11.20;;
7881;SDS011;3986;41.884;23.466;2022-07-29T10:25:13;37.20;;;10.23;;
7881;SDS011;3986;41.884;23.466;2022-07-29T10:27:41;63.55;;;12.02;;
7881;SDS011;3986;41.884;23.466;2022-07-29T10:30:08;58.08;;;11.80;;
7881;SDS011;3986;41.884;23.466;2022-07-29T10:32:42;36.28;;;10.88;;
7881;SDS011;3986;41.884;23.466;2022-07-29T10:35:21;61.88;;;12.93;;
7881;SDS011;3986;41.884;23.466;2022-07-29T10:38:24;34.47;;;10.25;;
7881;SDS011;3986;41.884;23.466;2022-07-29T10:41:19;42.75;;;10.68;;
7881;SDS011;3986;41.884;23.466;2022-07-29T10:44:06;60.00;;;12.63;;
7881;SDS011;3986;41.884;23.466;2022-07-29T10:46:39;76.43;;;13.50;;
7881;SDS011;3986;41.884;23.466;2022-07-29T10:49:07;35.08;;;10.43;;
7881;SDS011;3986;41.884;23.466;2022-07-29T10:51:52;41.85;;;10.82;;
7881;SDS011;3986;41.884;23.466;2022-07-29T10:54:36;30.88;;;9.45;;
7881;SDS011;3986;41.884;23.466;2022-07-29T10:57:13;35.50;;;10.80;;
7881;SDS011;3986;41.884;23.466;2022-07-29T10:59:41;23.83;;;9.18;;
7881;SDS011;3986;41.884;23.466;2022-07-29T11:05:09;20.17;;;10.40;;
7881;SDS011;3986;41.884;23.466;2022-07-29T11:07:38;29.70;;;10.07;;
7881;SDS011;3986;41.884;23.466;2022-07-29T11:10:19;31.27;;;10.45;;
7881;SDS011;3986;41.884;23.466;2022-07-29T11:12:49;36.53;;;11.00;;
7881;SDS011;3986;41.884;23.466;2022-07-29T11:15:17;24.35;;;9.50;;
7881;SDS011;3986;41.884;23.466;2022-07-29T11:18:02;46.72;;;11.07;;
7881;SDS011;3986;41.884;23.466;2022-07-29T11:20:30;49.72;;;12.40;;
7881;SDS011;3986;41.884;23.466;2022-07-29T11:22:58;44.90;;;11.68;;
7881;SDS011;3986;41.884;23.466;2022-07-29T11:25:26;41.17;;;12.00;;
7881;SDS011;3986;41.884;23.466;2022-07-29T11:28:08;52.67;;;12.32;;
7881;SDS011;3986;41.884;23.466;2022-07-29T11:30:49;35.90;;;12.32;;
7881;SDS011;3986;41.884;23.466;2022-07-29T11:33:27;50.63;;;15.40;;
7881;SDS011;3986;41.884;23.466;2022-07-29T11:36:08;26.70;;;11.50;;
7881;SDS011;3986;41.884;23.466;2022-07-29T11:38:36;28.38;;;12.88;;
7881;SDS011;3986;41.884;23.466;2022-07-29T11:41:19;32.30;;;11.88;;
7881;SDS011;3986;41.884;23.466;2022-07-29T11:43:49;40.08;;;12.52;;
7881;SDS011;3986;41.884;23.466;2022-07-29T11:46:18;48.88;;;15.23;;
7881;SDS011;3986;41.884;23.466;2022-07-29T11:48:59;32.05;;;13.93;;
7881;SDS011;3986;41.884;23.466;2022-07-29T11:51:26;57.17;;;14.70;;
7881;SDS011;3986;41.884;23.466;2022-07-29T11:53:53;32.30;;;12.65;;
7881;SDS011;3986;41.884;23.466;2022-07-29T11:56:23;50.35;;;13.75;;
7881;SDS011;3986;41.884;23.466;2022-07-29T11:59:03;35.25;;;12.73;;
7881;SDS011;3986;41.884;23.466;2022-07-29T12:01:31;29.38;;;13.80;;
7881;SDS011;3986;41.884;23.466;2022-07-29T12:04:04;29.45;;;14.48;;
7881;SDS011;3986;41.884;23.466;2022-07-29T12:06:32;29.50;;;12.30;;
7881;SDS011;3986;41.884;23.466;2022-07-29T12:08:59;45.42;;;13.02;;
7881;SDS011;3986;41.884;23.466;2022-07-29T12:11:26;34.50;;;13.32;;
7881;SDS011;3986;41.884;23.466;2022-07-29T12:13:53;45.47;;;20.50;;
7881;SDS011;3986;41.884;23.466;2022-07-29T12:16:21;31.50;;;13.43;;
7881;SDS011;3986;41.884;23.466;2022-07-29T12:18:54;31.50;;;12.43;;
7881;SDS011;3986;41.884;23.466;2022-07-29T12:21:22;30.83;;;12.48;;
7881;SDS011;3986;41.884;23.466;2022-07-29T12:23:52;29.23;;;12.50;;
7881;SDS011;3986;41.884;23.466;2022-07-29T12:26:20;76.10;;;15.88;;
7881;SDS011;3986;41.884;23.466;2022-07-29T12:28:47;40.17;;;13.27;;
7881;SDS011;3986;41.884;23.466;2022-07-29T12:31:14;37.67;;;12.52;;
7881;SDS011;3986;41.884;23.466;2022-07-29T12:33:43;14.63;;;11.63;;
7881;SDS011;3986;41.884;23.466;2022-07-29T12:36:19;36.60;;;13.13;;
7881;SDS011;3986;41.884;23.466;2022-07-29T12:38:46;21.10;;;12.57;;
7881;SDS011;3986;41.884;23.466;2022-07-29T12:41:13;12.77;;;11.55;;
7881;SDS011;3986;41.884;23.466;2022-07-29T12:43:51;27.58;;;13.05;;
7881;SDS011;3986;41.884;23.466;2022-07-29T12:46:19;52.08;;;14.05;;
7881;SDS011;3986;41.884;23.466;2022-07-29T12:48:50;40.08;;;13.93;;
7881;SDS011;3986;41.884;23.466;2022-07-29T12:51:27;53.63;;;15.05;;
7881;SDS011;3986;41.884;23.466;2022-07-29T12:54:03;40.45;;;13.90;;
7881;SDS011;3986;41.884;23.466;2022-07-29T12:56:32;34.67;;;13.60;;
7881;SDS011;3986;41.884;23.466;2022-07-29T12:58:59;43.85;;;13.55;;
7881;SDS011;3986;41.884;23.466;2022-07-29T13:01:25;47.15;;;13.75;;
7881;SDS011;3986;41.884;23.466;2022-07-29T13:03:54;52.50;;;14.90;;
7881;SDS011;3986;41.884;23.466;2022-07-29T13:06:30;55.42;;;14.40;;
7881;SDS011;3986;41.884;23.466;2022-07-29T13:09:01;33.88;;;13.13;;
7881;SDS011;3986;41.884;23.466;2022-07-29T13:11:37;30.98;;;12.23;;
7881;SDS011;3986;41.884;23.466;2022-07-29T13:14:06;28.08;;;12.52;;
7881;SDS011;3986;41.884;23.466;2022-07-29T13:16:34;23.65;;;12.50;;
7881;SDS011;3986;41.884;23.466;2022-07-29T13:21:58;42.03;;;13.45;;
7881;SDS011;3986;41.884;23.466;2022-07-29T13:24:25;52.38;;;12.65;;
7881;SDS011;3986;41.884;23.466;2022-07-29T13:26:52;41.33;;;12.10;;
7881;SDS011;3986;41.884;23.466;2022-07-29T13:29:19;29.80;;;11.23;;
7881;SDS011;3986;41.884;23.466;2022-07-29T13:31:47;48.97;;;13.15;;
7881;SDS011;3986;41.884;23.466;2022-07-29T13:34:14;48.65;;;13.20;;
7881;SDS011;3986;41.884;23.466;2022-07-29T13:36:42;35.95;;;11.57;;
7881;SDS011;3986;41.884;23.466;2022-07-29T13:39:09;33.65;;;11.70;;
7881;SDS011;3986;41.884;23.466;2022-07-29T13:41:36;31.45;;;12.02;;
7881;SDS011;3986;41.884;23.466;2022-07-29T13:44:03;33.95;;;12.07;;
7881;SDS011;3986;41.884;23.466;2022-07-29T13:46:30;44.35;;;12.60;;
7881;SDS011;3986;41.884;23.466;2022-07-29T13:48:56;42.97;;;12.43;;
7881;SDS011;3986;41.884;23.466;2022-07-29T13:51:23;34.97;;;12.30;;
7881;SDS011;3986;41.884;23.466;2022-07-29T13:53:52;34.28;;;12.20;;
7881;SDS011;3986;41.884;23.466;2022-07-29T13:56:18;49.08;;;13.23;;
7881;SDS011;3986;41.884;23.466;2022-07-29T13:58:45;50.97;;;12.77;;
7881;SDS011;3986;41.884;23.466;2022-07-29T14:01:12;40.20;;;12.55;;
7881;SDS011;3986;41.884;23.466;2022-07-29T14:03:39;33.47;;;11.63;;
7881;SDS011;3986;41.884;23.466;2022-07-29T14:06:08;27.95;;;12.35;;
7881;SDS011;3986;41.884;23.466;2022-07-29T14:08:35;19.95;;;16.80;;
7881;SDS011;3986;41.884;23.466;2022-07-29T14:11:03;34.97;;;11.98;;
7881;SDS011;3986;41.884;23.466;2022-07-29T14:13:30;55.97;;;13.43;;
7881;SDS011;3986;41.884;23.466;2022-07-29T14:15:59;24.63;;;12.98;;
7881;SDS011;3986;41.884;23.466;2022-07-29T14:18:26;32.78;;;14.32;;
7881;SDS011;3986;41.884;23.466;2022-07-29T14:20:54;30.83;;;13.65;;
7881;SDS011;3986;41.884;23.466;2022-07-29T14:23:20;47.10;;;14.98;;
7881;SDS011;3986;41.884;23.466;2022-07-29T14:25:47;37.53;;;13.07;;
7881;SDS011;3986;41.884;23.466;2022-07-29T14:28:16;35.92;;;12.75;;
7881;SDS011;3986;41.884;23.466;2022-07-29T14:30:42;87.00;;;78.60;;
7881;SDS011;3986;41.884;23.466;2022-07-29T14:33:09;32.58;;;25.50;;
7881;SDS011;3986;41.884;23.466;2022-07-29T14:35:36;35.05;;;30.98;;
7881;SDS011;3986;41.884;23.466;2022-07-29T14:38:03;53.40;;;32.53;;
7881;SDS011;3986;41.884;23.466;2022-07-29T14:40:30;38.33;;;23.15;;
7881;SDS011;3986;41.884;23.466;2022-07-29T14:42:56;26.48;;;17.00;;
7881;SDS011;3986;41.884;23.466;2022-07-29T14:45:25;38.88;;;18.15;;
7881;SDS011;3986;41.884;23.466;2022-07-29T14:47:53;54.42;;;17.73;;
7881;SDS011;3986;41.884;23.466;2022-07-29T14:50:20;31.33;;;16.83;;
7881;SDS011;3986;41.884;23.466;2022-07-29T14:52:47;21.02;;;15.50;;
7881;SDS011;3986;41.884;23.466;2022-07-29T14:55:14;30.08;;;16.23;;